Latest Weather Observations for Collie East

IDW60801

Issued at 5:33 am WST Tuesday 26 July 2016 (issued every 30 minutes, with the page automatically refreshed every 10 minutes)

About weather observations | Map of weather stations | Latest weather observations for WA | Other Formats
Station Details ID: 009994 Name: COLLIE EAST Lat: -33.36 Lon: 116.17 Height: 200.0 m
Data from the previous 72 hours. | See also: Recent months at Collie East
Date/Time
WST
Temp
°C
App
Temp
°C
Dew
Point
°C
Rel
Hum
%
Delta-T
°C
Wind Press
QNH
hPa
Press
MSL
hPa
Rain since
9am
mm
Dir  Spd
km/h
Gust
km/h
Spd
kts
Gust
kts
26/05:30am 2.6 0.9 1.7 94 0.4 CALM 0 0 0 0 - - 0.0
26/05:00am 3.1 1.5 2.2 94 0.4 CALM 0 0 0 0 - - 0.0
26/04:30am 3.0 1.3 2.1 94 0.4 CALM 0 0 0 0 - - 0.0
26/04:00am 3.0 1.3 2.1 94 0.4 CALM 0 0 0 0 - - 0.0
26/03:30am 3.4 1.8 2.5 94 0.4 CALM 0 0 0 0 - - 0.0
26/03:00am 3.8 2.3 2.9 94 0.4 CALM 0 0 0 0 - - 0.0
26/02:30am 3.8 2.3 2.9 94 0.4 CALM 0 0 0 0 - - 0.0
26/02:00am 3.6 2.0 2.6 93 0.4 CALM 0 0 0 0 - - 0.0
26/01:30am 3.7 2.1 2.7 93 0.4 CALM 0 0 0 0 - - 0.0
26/01:00am 3.6 2.0 2.6 93 0.4 CALM 0 0 0 0 - - 0.0
26/12:30am 4.0 2.5 3.0 93 0.4 CALM 0 0 0 0 - - 0.0
26/12:00am 4.7 3.3 3.7 93 0.4 CALM 0 0 0 0 - - 0.0
 
Date/Time
WST
Temp
°C
App
Temp
°C
Dew
Point
°C
Rel
Hum
%
Delta-T
°C
Wind Press
QNH
hPa
Press
MSL
hPa
Rain since
9am
mm
Dir  Spd
km/h
Gust
km/h
Spd
kts
Gust
kts
25/11:30pm 5.2 3.9 4.2 93 0.4 CALM 0 0 0 0 - - 0.0
25/11:00pm 5.8 4.6 4.8 93 0.4 CALM 0 0 0 0 - - 0.0
25/10:30pm 6.0 4.9 5.0 93 0.4 CALM 0 0 0 0 - - 0.0
25/10:00pm 6.6 5.6 5.6 93 0.4 CALM 0 0 0 0 - - 0.0
25/09:30pm 6.3 5.2 5.1 92 0.5 CALM 0 0 0 0 - - 0.0
25/09:00pm 7.4 6.5 6.2 92 0.6 CALM 0 0 0 0 - - 0.0
25/08:30pm 7.3 6.3 5.8 90 0.7 CALM 0 0 0 0 - - 0.0
25/08:00pm 8.4 7.6 6.7 89 0.8 CALM 0 0 0 0 - - 0.0
25/07:30pm 9.4 8.0 7.3 87 1.0 WNW 4 7 2 4 - - 0.0
25/07:00pm 10.5 8.9 7.9 84 1.3 WNW 6 9 3 5 - - 0.0
25/06:30pm 11.4 9.9 8.4 82 1.5 WNW 6 9 3 5 - - 0.0
25/06:00pm 12.7 11.1 8.8 77 2.0 W 7 15 4 8 - - 0.0
25/05:30pm 13.1 11.6 8.6 74 2.3 W 6 13 3 7 - - 0.0
25/05:00pm 14.4 12.6 8.1 66 3.2 NW 7 13 4 7 - - 0.0
25/04:30pm 14.4 12.7 7.7 64 3.4 WSW 6 11 3 6 - - 0.0
25/04:00pm 14.7 13.9 8.0 64 3.4 ESE 2 6 1 3 - - 0.0
25/03:30pm 14.7 14.3 8.2 65 3.3 CALM 0 0 0 0 - - 0.0
25/03:00pm 14.9 14.4 7.9 63 3.5 CALM 0 2 0 1 - - 0.0
25/02:30pm 14.6 12.9 8.3 66 3.2 W 7 11 4 6 - - 0.0
25/02:00pm 15.0 13.6 8.7 66 3.2 E 6 9 3 5 - - 0.0
25/01:30pm 13.8 12.0 8.0 68 2.9 SE 7 13 4 7 - - 0.0
25/01:00pm 13.9 12.3 8.1 68 2.9 SE 6 9 3 5 - - 0.0
25/12:30pm 13.4 12.0 8.9 74 2.3 NW 6 7 3 4 - - 0.0
25/12:00pm 12.7 12.1 8.8 77 2.0 NE 2 7 1 4 - - 0.0
25/11:30am 11.8 11.0 8.1 78 1.8 ESE 2 7 1 4 - - 0.0
25/11:00am 11.1 10.5 8.8 86 1.2 NNW 2 6 1 3 - - 0.0
25/10:30am 10.8 9.2 8.2 84 1.3 WNW 6 9 3 5 - - 0.0
25/10:00am 10.5 10.1 8.3 86 1.1 CALM 0 0 0 0 - - 0.0
25/09:30am 8.9 8.4 7.8 93 0.5 CALM 0 0 0 0 - - 0.0
25/09:00am 8.0 7.3 7.1 94 0.4 CALM 0 0 0 0 - - 0.0
25/08:30am 7.1 6.2 6.2 94 0.4 CALM 0 0 0 0 - - 0.0
25/08:00am 6.1 5.0 5.2 94 0.4 CALM 0 0 0 0 - - 0.0
25/07:30am 5.9 4.8 5.0 94 0.4 CALM 0 0 0 0 - - 0.0
25/07:00am 5.8 4.7 4.9 94 0.4 CALM 0 0 0 0 - - 0.0
25/06:30am 5.9 4.8 5.0 94 0.4 CALM 0 0 0 0 - - 0.0
25/06:00am 5.3 4.1 4.4 94 0.4 CALM 0 0 0 0 - - 0.0
25/05:30am 5.0 3.7 4.1 94 0.4 CALM 0 0 0 0 - - 0.0
25/05:00am 4.9 3.6 4.0 94 0.4 CALM 0 0 0 0 - - 0.0
25/04:30am 5.9 4.0 5.0 94 0.4 NNE 4 7 2 4 - - 0.0
25/04:00am 5.9 4.8 5.0 94 0.4 CALM 0 6 0 3 - - 0.0
25/03:30am 5.7 3.8 4.8 94 0.4 N 4 7 2 4 - - 0.0
25/03:00am 5.3 4.1 4.4 94 0.4 CALM 0 0 0 0 - - 0.0
25/02:30am 4.7 3.3 3.7 93 0.4 CALM 0 0 0 0 - - 0.0
25/02:00am 4.7 3.3 3.7 93 0.4 CALM 0 0 0 0 - - 0.0
25/01:30am 6.0 4.9 5.0 93 0.4 CALM 0 6 0 3 - - 0.0
25/01:00am 6.0 4.9 5.0 93 0.4 CALM 0 0 0 0 - - 0.0
25/12:30am 6.1 4.6 5.1 93 0.4 NNW 2 7 1 4 - - 0.0
25/12:00am 6.0 4.9 5.0 93 0.4 CALM 0 0 0 0 - - 0.0
 
Date/Time
WST
Temp
°C
App
Temp
°C
Dew
Point
°C
Rel
Hum
%
Delta-T
°C
Wind Press
QNH
hPa
Press
MSL
hPa
Rain since
9am
mm
Dir  Spd
km/h
Gust
km/h
Spd
kts
Gust
kts
24/11:30pm 6.0 4.9 5.0 93 0.4 CALM 0 0 0 0 - - 0.0
24/11:00pm 6.0 4.9 5.0 93 0.4 CALM 0 0 0 0 - - 0.0
24/10:30pm 5.4 4.2 4.4 93 0.4 CALM 0 0 0 0 - - 0.0
24/10:00pm 4.4 2.9 3.1 91 0.5 CALM 0 0 0 0 - - 0.0
24/09:30pm 4.6 3.1 3.1 90 0.6 CALM 0 0 0 0 - - 0.0
24/09:00pm 5.7 4.4 4.2 90 0.6 CALM 0 0 0 0 - - 0.0
24/08:30pm 6.6 5.5 4.9 89 0.8 CALM 0 0 0 0 - - 0.0
24/08:00pm 7.8 6.9 6.1 89 0.8 CALM 0 0 0 0 - - 0.0
24/07:30pm 8.5 7.7 6.6 88 0.9 CALM 0 0 0 0 - - 0.0
24/07:00pm 8.6 7.8 6.6 87 0.9 CALM 0 0 0 0 - - 0.0
24/06:30pm 9.0 8.2 6.4 84 1.2 CALM 0 0 0 0 - - 0.0
24/06:00pm 10.2 9.5 6.9 80 1.6 CALM 0 0 0 0 - - 0.0
24/05:30pm 10.6 9.9 6.9 78 1.8 CALM 0 0 0 0 - - 0.0
24/05:00pm 10.8 8.8 6.4 74 2.1 W 6 11 3 6 - - 0.0
24/04:30pm 11.0 9.0 6.4 73 2.2 W 6 11 3 6 - - 0.0
24/04:00pm 11.3 9.1 6.0 70 2.5 W 7 15 4 8 - - 0.0
24/03:30pm 11.8 9.7 5.7 66 2.9 WSW 6 9 3 5 - - 0.0
24/03:00pm 11.4 9.1 5.7 68 2.7 SW 7 13 4 7 - - 0.0
24/02:30pm 11.7 9.1 6.0 68 2.7 WNW 9 17 5 9 - - 0.0
24/02:00pm 11.7 9.7 6.4 70 2.5 W 6 7 3 4 - - 0.0
24/01:30pm 11.4 8.7 5.5 67 2.8 WSW 9 20 5 11 - - 0.0
24/01:00pm 11.2 8.9 5.9 70 2.5 W 7 13 4 7 - - 0.0
24/12:30pm 11.5 9.1 5.4 66 2.8 W 7 13 4 7 - - 0.0
24/12:00pm 11.4 9.6 5.5 67 2.8 NNW 4 11 2 6 - - 0.0
24/11:30am 11.1 10.0 5.2 67 2.7 CALM 0 0 0 0 - - 0.0
24/11:00am 10.4 8.6 5.6 72 2.2 N 4 9 2 5 - - 0.0
24/10:30am 9.4 7.3 5.8 78 1.7 NNE 6 7 3 4 - - 0.0
24/10:00am 7.5 5.3 5.1 85 1.1 N 6 7 3 4 - - 0.0
24/09:30am 6.0 4.8 4.5 90 0.7 CALM 0 0 0 0 - - 0.0
24/09:00am 5.0 3.6 3.8 92 0.5 CALM 0 0 0 0 - - 0.2
24/08:30am 4.1 2.2 3.1 93 0.4 NNW 2 6 1 3 - - 0.2
24/08:00am 3.6 2.0 2.6 93 0.4 CALM 0 0 0 0 - - 0.2
24/07:30am 3.1 1.4 2.1 93 0.4 CALM 0 0 0 0 - - 0.2
24/07:00am 2.8 1.1 1.8 93 0.4 CALM 0 0 0 0 - - 0.2
24/06:30am 2.5 0.7 1.5 93 0.4 CALM 0 6 0 3 - - 0.2
24/06:00am 2.4 0.6 1.4 93 0.4 CALM 0 0 0 0 - - 0.2
24/05:30am 2.0 0.2 1.0 93 0.4 CALM 0 0 0 0 - - 0.2
24/05:00am 1.7 -0.2 0.7 93 0.4 CALM 0 0 0 0 - - 0.2
24/04:30am 2.0 0.2 1.0 93 0.4 CALM 0 0 0 0 - - 0.2
24/04:00am 2.2 0.4 1.2 93 0.4 CALM 0 7 0 4 - - 0.2
24/03:30am 1.9 0.1 0.9 93 0.4 CALM 0 0 0 0 - - 0.2
24/03:00am 1.3 -0.6 0.3 93 0.4 CALM 0 4 0 2 - - 0.2
24/02:30am 0.8 -1.2 -0.2 93 0.4 CALM 0 0 0 0 - - 0.2
24/02:00am 0.3 -1.8 -0.8 92 0.4 CALM 0 0 0 0 - - 0.2
24/01:30am 0.7 -1.3 -0.4 92 0.4 CALM 0 0 0 0 - - 0.2
24/01:00am 1.0 -1.0 0.0 93 0.4 CALM 0 0 0 0 - - 0.2
24/12:30am 0.7 -1.3 -0.4 92 0.4 CALM 0 0 0 0 - - 0.2
24/12:00am 0.4 -1.7 -0.7 92 0.4 CALM 0 0 0 0 - - 0.2
 
Date/Time
WST
Temp
°C
App
Temp
°C
Dew
Point
°C
Rel
Hum
%
Delta-T
°C
Wind Press
QNH
hPa
Press
MSL
hPa
Rain since
9am
mm
Dir  Spd
km/h
Gust
km/h
Spd
kts
Gust
kts
23/11:30pm 1.0 -1.0 -0.1 92 0.4 CALM 0 0 0 0 - - 0.2
23/11:00pm 1.3 -0.7 0.1 92 0.4 CALM 0 0 0 0 - - 0.2
23/10:30pm 1.6 -0.3 0.3 91 0.5 CALM 0 0 0 0 - - 0.2
23/10:00pm 2.0 0.1 0.7 91 0.5 CALM 0 0 0 0 - - 0.2
23/09:30pm 2.6 0.8 1.3 91 0.5 CALM 0 0 0 0 - - 0.2
23/09:00pm 2.9 1.1 1.4 90 0.6 CALM 0 0 0 0 - - 0.2
23/08:30pm 3.7 2.1 2.2 90 0.6 CALM 0 0 0 0 - - 0.2
23/08:00pm 4.1 2.5 2.3 88 0.7 CALM 0 0 0 0 - - 0.2
23/07:30pm 5.0 3.5 2.9 86 0.9 CALM 0 0 0 0 - - 0.2
23/07:00pm 5.9 4.5 3.4 84 1.1 CALM 0 0 0 0 - - 0.2
23/06:30pm 6.7 5.3 3.3 79 1.4 CALM 0 0 0 0 - - 0.2
23/06:00pm 8.4 6.1 2.8 68 2.4 SSW 4 7 2 4 - - 0.2
23/05:30pm 9.7 6.8 2.8 62 3.0 S 7 15 4 8 - - 0.2
23/05:00pm 10.8 8.1 3.8 62 3.1 SSW 7 15 4 8 - - 0.2
23/04:30pm 11.7 8.1 2.7 54 4.0 S 11 28 6 15 - - 0.2
23/04:00pm 12.4 9.8 4.4 58 3.7 SSW 7 15 4 8 - - 0.2
23/03:30pm 12.0 8.5 3.3 55 3.9 SSW 11 26 6 14 - - 0.2
23/03:00pm 13.6 10.7 4.7 55 4.2 SSW 9 17 5 9 - - 0.2
23/02:30pm 13.1 9.3 4.0 54 4.2 SW 13 26 7 14 - - 0.2
23/02:00pm 12.9 8.0 4.1 55 4.0 WSW 19 32 10 17 - - 0.2
23/01:30pm 12.5 9.1 5.9 64 3.1 S 13 24 7 13 - - 0.2
23/01:00pm 12.5 8.5 6.5 67 2.9 SW 17 30 9 16 - - 0.2
23/12:30pm 12.5 10.0 8.4 76 2.1 SW 11 17 6 9 - - 0.2
23/12:00pm 10.6 8.1 8.4 86 1.1 SW 11 22 6 12 - - 0.2
23/11:30am 13.2 10.4 8.7 74 2.3 SW 13 24 7 13 - - 0.0
23/11:00am 12.2 10.3 9.0 81 1.6 WNW 9 15 5 8 - - 0.0
23/10:30am 11.4 9.9 9.1 86 1.2 W 7 11 4 6 - - 0.0
23/10:00am 10.4 9.0 9.0 91 0.7 W 6 11 3 6 - - 0.0
23/09:30am 9.4 7.7 8.2 92 0.6 WNW 7 15 4 8 - - 0.0
23/09:00am 8.1 6.1 7.2 94 0.4 N 7 11 4 6 - - 0.6
23/08:30am 7.2 6.4 6.3 94 0.4 CALM 0 0 0 0 - - 0.6
23/08:00am 6.6 5.6 5.7 94 0.4 CALM 0 6 0 3 - - 0.6
23/07:30am 6.1 5.0 5.2 94 0.4 CALM 0 0 0 0 - - 0.2
23/07:00am 5.8 4.3 4.9 94 0.4 N 2 7 1 4 - - 0.2
23/06:30am 6.1 5.0 5.2 94 0.4 CALM 0 0 0 0 - - 0.2
23/06:00am 6.0 4.9 5.1 94 0.4 CALM 0 0 0 0 - - 0.2

Other Formats:

Comma delimited format used in spreadsheet applications
http://www.bom.gov.au/fwo/IDW60801/IDW60801.95621.axf

JavaScript Object Notation format (JSON) in row-major order
http://www.bom.gov.au/fwo/IDW60801/IDW60801.95621.json